»·PEaware :: AAL554 KOKC-KMDW

AAL554 :: KOKC-KMDW

FLIGHT INFORMATION

Flight Status: Arrived
Operator:
American Airlines
More flights by this operator :: More flights under this callsign
Pilot: Shawn Goldsworthy (7208)
Aircraft: MCDONNELL-DOUGLAS MD-88
(MD88)
More flights by this aircraft type
Origin: KOKC Will Rogers World
United States
Destination: KMDW Chicago-Midway
United States
More flights between these airports :: More routes between these airports
Route: TRUPR2 DRLER DCT MAGOO ENDEE4
File this flight plan on PilotEdge
Remarks:
Altitude:
(Current/Filed)
37,000ft
Speed:
(Current/Filed)
480kts
Departed: 03-Jun-17 10:49 PM
Arrived: 04-Jun-17 12:19 AM
Distance/Time
Traveled:
600nm/1:30
Distance/Time
To Go:
Arrived

Flight Plot

Page will automatically refresh every two minutes.

Flight plan parsing failed; only flown route is shown


Map Options




Map Legend


Flown Route
Filed Route
Departure Airport
Arrival Airport
Navaid (VOR, NDB)
Fix

Horizontal Profiles

Position Reports

Time Latitude Longitude Heading Altitude Ground
Speed
03-Jun-17 22:31 35.394607 -97.597052 23 1299ft 0kts
03-Jun-17 22:32 35.394607 -97.597052 23 1299ft 0kts
03-Jun-17 22:33 35.394607 -97.597052 23 1299ft 0kts
03-Jun-17 22:34 35.394607 -97.597052 23 1299ft 0kts
03-Jun-17 22:35 35.394604 -97.597051 23 1299ft 0kts
03-Jun-17 22:36 35.394604 -97.597051 23 1299ft 0kts
03-Jun-17 22:37 35.394604 -97.597051 23 1299ft 0kts
03-Jun-17 22:38 35.394604 -97.597051 23 1299ft 0kts
03-Jun-17 22:39 35.394604 -97.597051 23 1299ft 0kts
03-Jun-17 22:40 35.394604 -97.597051 23 1299ft 0kts
03-Jun-17 22:41 35.394604 -97.597051 23 1299ft 0kts
03-Jun-17 22:42 35.394487 -97.597103 22 1299ft 0kts
03-Jun-17 22:43 35.394226 -97.597353 92 1299ft 0kts
03-Jun-17 22:44 35.394227 -97.597359 96 1299ft 0kts
03-Jun-17 22:45 35.394227 -97.597359 96 1299ft 0kts
03-Jun-17 22:46 35.393846 -97.594002 88 1299ft 18kts
03-Jun-17 22:47 35.398727 -97.590623 358 1299ft 24kts
03-Jun-17 22:48 35.403648 -97.590581 357 1299ft 12kts
03-Jun-17 22:49 35.405032 -97.590252 90 1299ft 0kts
03-Jun-17 22:50 35.403955 -97.588953 178 1299ft 17kts
03-Jun-17 22:51 35.371813 -97.588588 176 2410ft 166kts
03-Jun-17 22:52 35.347097 -97.551389 64 4396ft 227kts
03-Jun-17 22:53 35.387113 -97.472968 53 6858ft 293kts
03-Jun-17 22:54 35.432703 -97.388751 55 10216ft 314kts
03-Jun-17 22:55 35.486646 -97.287608 56 12448ft 375kts
03-Jun-17 22:56 35.544681 -97.178916 55 15589ft 393kts
03-Jun-17 22:57 35.605742 -97.064742 55 18369ft 411kts
03-Jun-17 22:58 35.669226 -96.945169 58 20864ft 428kts
03-Jun-17 22:59 35.728769 -96.815126 60 23138ft 444kts
03-Jun-17 23:00 35.789582 -96.680489 60 25217ft 458kts
03-Jun-17 23:01 35.851909 -96.542760 60 27077ft 471kts
03-Jun-17 23:02 35.916903 -96.399530 60 29888ft 488kts
03-Jun-17 23:03 35.982027 -96.256422 61 33230ft 481kts
03-Jun-17 23:04 36.046577 -96.114769 60 35974ft 475kts
03-Jun-17 23:05 36.110602 -95.974764 60 36990ft 472kts
03-Jun-17 23:06 36.175356 -95.833536 60 36993ft 473kts
03-Jun-17 23:07 36.258346 -95.710323 44 36997ft 472kts
03-Jun-17 23:08 36.347213 -95.591930 46 36996ft 472kts
03-Jun-17 23:09 36.436029 -95.472504 45 36997ft 472kts
03-Jun-17 23:10 36.524792 -95.353255 45 37023ft 472kts
03-Jun-17 23:11 36.612926 -95.234996 46 37012ft 472kts
03-Jun-17 23:12 36.701629 -95.116082 46 37020ft 472kts
03-Jun-17 23:13 36.790848 -94.996637 45 37022ft 472kts
03-Jun-17 23:14 36.879882 -94.877572 45 37023ft 472kts
03-Jun-17 23:15 36.969509 -94.757863 45 37024ft 472kts
03-Jun-17 23:16 37.059114 -94.638315 44 37025ft 472kts
03-Jun-17 23:17 37.150334 -94.516692 42 37024ft 482kts
03-Jun-17 23:18 37.242022 -94.394740 42 37027ft 482kts
03-Jun-17 23:19 37.333221 -94.273513 43 37018ft 482kts
03-Jun-17 23:20 37.424960 -94.151698 42 37019ft 482kts
03-Jun-17 23:21 37.516832 -94.029879 42 37027ft 482kts
03-Jun-17 23:22 37.608397 -93.908591 42 37021ft 481kts
03-Jun-17 23:23 37.700507 -93.786740 42 37023ft 481kts
03-Jun-17 23:24 37.792965 -93.664577 42 37025ft 481kts
03-Jun-17 23:25 37.885206 -93.542849 42 37026ft 481kts
03-Jun-17 23:26 37.977429 -93.421291 41 37027ft 480kts
03-Jun-17 23:27 38.068743 -93.301099 42 37019ft 481kts
03-Jun-17 23:28 38.160114 -93.180970 42 37019ft 481kts
03-Jun-17 23:29 38.252513 -93.059618 42 37020ft 480kts
03-Jun-17 23:30 38.344984 -92.938335 41 37021ft 479kts
03-Jun-17 23:31 38.437348 -92.817361 41 37022ft 479kts
03-Jun-17 23:32 38.529874 -92.696317 41 37024ft 479kts
03-Jun-17 23:33 38.622312 -92.575540 41 37025ft 479kts
03-Jun-17 23:34 38.715127 -92.454394 41 37036ft 475kts
03-Jun-17 23:35 38.807685 -92.333806 41 37020ft 479kts
03-Jun-17 23:36 38.901022 -92.212309 41 37019ft 479kts
03-Jun-17 23:37 38.993864 -92.091617 41 37020ft 478kts
03-Jun-17 23:38 39.086526 -91.971305 41 37021ft 478kts
03-Jun-17 23:39 39.175476 -91.855976 41 37022ft 478kts
03-Jun-17 23:40 39.268997 -91.734864 41 37023ft 478kts
03-Jun-17 23:41 39.353137 -91.626045 40 37026ft 478kts
03-Jun-17 23:42 39.446555 -91.505352 40 37025ft 477kts
03-Jun-17 23:43 39.540562 -91.384072 40 37027ft 477kts
03-Jun-17 23:44 39.633670 -91.264109 41 37018ft 478kts
03-Jun-17 23:45 39.690625 -91.190796 40 37019ft 477kts
03-Jun-17 23:46 39.765832 -91.094057 40 37011ft 476kts
03-Jun-17 23:47 39.859733 -90.973474 40 37021ft 477kts
03-Jun-17 23:48 39.953990 -90.852559 40 37022ft 476kts
03-Jun-17 23:49 40.049417 -90.733502 36 37024ft 474kts
03-Jun-17 23:50 40.147695 -90.620969 36 36840ft 477kts
03-Jun-17 23:51 40.247175 -90.506758 36 34182ft 478kts
03-Jun-17 23:52 40.346279 -90.393186 36 31702ft 472kts
03-Jun-17 23:53 40.435400 -90.290051 37 29326ft 467kts
03-Jun-17 23:54 40.531517 -90.178506 37 26724ft 460kts
03-Jun-17 23:55 40.624280 -90.068834 38 24572ft 444kts
03-Jun-17 23:56 40.713940 -89.961870 38 22590ft 425kts
03-Jun-17 23:57 40.795777 -89.857326 42 21540ft 404kts
03-Jun-17 23:58 40.871308 -89.747732 50 20982ft 407kts
03-Jun-17 23:59 40.924658 -89.617142 58 19337ft 399kts
04-Jun-17 00:00 40.976197 -89.489029 58 17749ft 390kts
04-Jun-17 00:01 41.026566 -89.363519 59 15835ft 388kts
04-Jun-17 00:02 41.075786 -89.240193 60 13721ft 383kts
04-Jun-17 00:03 41.124579 -89.118200 60 11640ft 376kts
04-Jun-17 00:04 41.171944 -89.005499 58 9679ft 323kts
04-Jun-17 00:05 41.212439 -88.907315 59 8666ft 290kts
04-Jun-17 00:06 41.250416 -88.813396 59 8150ft 288kts
04-Jun-17 00:07 41.288029 -88.720518 59 7635ft 285kts
04-Jun-17 00:08 41.325423 -88.628365 58 7117ft 282kts
04-Jun-17 00:09 41.362630 -88.536844 58 6597ft 279kts
04-Jun-17 00:10 41.406943 -88.454144 47 6337ft 275kts
04-Jun-17 00:11 41.455100 -88.375310 47 6158ft 273kts
04-Jun-17 00:12 41.502021 -88.298025 49 5981ft 273kts
04-Jun-17 00:13 41.535118 -88.204156 64 5606ft 291kts
04-Jun-17 00:14 41.568101 -88.102337 64 5068ft 301kts
04-Jun-17 00:15 41.599043 -88.007168 64 4950ft 257kts
04-Jun-17 00:16 41.637628 -87.937575 39 4945ft 234kts
04-Jun-17 00:17 41.679047 -87.885385 38 4881ft 183kts
04-Jun-17 00:18 41.714575 -87.841209 44 3100ft 165kts
04-Jun-17 00:19 41.744796 -87.802783 43 1738ft 141kts
04-Jun-17 00:20 41.773303 -87.766652 46 862ft 140kts
04-Jun-17 00:21 41.787569 -87.747925 151 626ft 7kts
04-Jun-17 00:22 41.785523 -87.747081 134 626ft 14kts
04-Jun-17 00:23 41.785796 -87.745162 347 626ft 6kts
04-Jun-17 00:24 41.786157 -87.745318 341 626ft 0kts
04-Jun-17 00:25 41.786157 -87.745318 341 626ft 0kts
04-Jun-17 00:26 41.786157 -87.745318 341 626ft 0kts
04-Jun-17 00:27 41.786157 -87.745318 341 626ft 0kts
04-Jun-17 00:28 41.786157 -87.745318 341 626ft 0kts
04-Jun-17 00:29 41.786157 -87.745318 341 626ft 0kts
04-Jun-17 00:30 41.786157 -87.745318 341 626ft 0kts
04-Jun-17 00:31 41.786157 -87.745318 341 626ft 0kts

Navigation Log

Ident Type
Flight plan parsing failed, navigation log unavailable